»·PEaware :: UAL1623 KLAX-KLAS

UAL1623 :: KLAX-KLAS

FLIGHT INFORMATION

Flight Status: Arrived
Operator:
United Airlines
More flights by this operator :: More flights under this callsign
Pilot: Saso K. (7898)
Aircraft: BOEING 757-200
(B752)
More flights by this aircraft type
Origin: KLAX Los Angeles Intl
United States
Destination: KLAS McCarran Intl
United States
More flights between these airports :: More routes between these airports
Route: ORCKA1 MISEN KEPEC4
File this flight plan on PilotEdge
Remarks:
Altitude:
(Current/Filed)
29,000ft
Speed:
(Current/Filed)
397kts
Departed: 16-Mar-17 05:55 PM
Arrived: 16-Mar-17 06:41 PM
Distance/Time
Traveled:
206nm/0:46
Distance/Time
To Go:
Arrived

Flight Plot

Page will automatically refresh every two minutes.

Flight plan parsing failed; only flown route is shown


Map Options




Map Legend


Flown Route
Filed Route
Departure Airport
Arrival Airport
Navaid (VOR, NDB)
Fix

Horizontal Profiles

Position Reports

Time Latitude Longitude Heading Altitude Ground
Speed
16-Mar-17 17:30 33.940317 -118.399800 34 120ft 0kts
16-Mar-17 17:31 33.940317 -118.399800 34 120ft 0kts
16-Mar-17 17:32 33.940317 -118.399800 34 120ft 0kts
16-Mar-17 17:33 33.940317 -118.399800 34 120ft 0kts
16-Mar-17 17:34 33.940317 -118.399800 34 120ft 0kts
16-Mar-17 17:35 33.940317 -118.399800 34 120ft 0kts
16-Mar-17 17:36 33.940317 -118.399800 34 119ft 0kts
16-Mar-17 17:37 33.940317 -118.399800 34 119ft 0kts
16-Mar-17 17:38 33.940317 -118.399800 34 119ft 0kts
16-Mar-17 17:39 33.940317 -118.399800 34 119ft 0kts
16-Mar-17 17:40 33.940317 -118.399800 34 119ft 0kts
16-Mar-17 17:41 33.940317 -118.399800 34 119ft 0kts
16-Mar-17 17:42 33.940317 -118.399800 34 119ft 0kts
16-Mar-17 17:43 33.940317 -118.399800 34 119ft 0kts
16-Mar-17 17:44 33.940317 -118.399800 34 119ft 0kts
16-Mar-17 17:45 33.940318 -118.399799 34 119ft 0kts
16-Mar-17 17:46 33.940335 -118.399787 31 119ft 0kts
16-Mar-17 17:47 33.939887 -118.400117 29 120ft 2kts
16-Mar-17 17:48 33.939502 -118.400399 53 121ft 0kts
16-Mar-17 17:49 33.939502 -118.400399 52 121ft 0kts
16-Mar-17 17:50 33.939502 -118.400399 52 121ft 0kts
16-Mar-17 17:51 33.939575 -118.400221 74 120ft 4kts
16-Mar-17 17:52 33.939442 -118.398026 157 116ft 7kts
16-Mar-17 17:53 33.939335 -118.394413 82 112ft 14kts
16-Mar-17 17:54 33.939810 -118.389572 83 107ft 15kts
16-Mar-17 17:55 33.939676 -118.388186 173 107ft 6kts
16-Mar-17 17:56 33.938636 -118.391925 263 110ft 69kts
16-Mar-17 17:57 33.933627 -118.439412 257 1742ft 176kts
16-Mar-17 17:58 33.916181 -118.511792 262 4621ft 252kts
16-Mar-17 17:59 33.884786 -118.581196 193 8661ft 272kts
16-Mar-17 18:00 33.830156 -118.527158 96 11585ft 319kts
16-Mar-17 18:01 33.868203 -118.434155 29 14550ft 347kts
16-Mar-17 18:02 33.959726 -118.401623 31 17739ft 364kts
16-Mar-17 18:03 34.013571 -118.296503 57 20380ft 392kts
16-Mar-17 18:04 34.071515 -118.186949 52 22759ft 407kts
16-Mar-17 18:05 34.133701 -118.076364 52 24890ft 423kts
16-Mar-17 18:06 34.198898 -117.960521 51 26842ft 437kts
16-Mar-17 18:07 34.266919 -117.838280 51 28640ft 452kts
16-Mar-17 18:08 34.338156 -117.711799 51 29136ft 476kts
16-Mar-17 18:09 34.412325 -117.586095 49 29139ft 455kts
16-Mar-17 18:10 34.486442 -117.462099 49 29141ft 456kts
16-Mar-17 18:11 34.557783 -117.341668 50 29139ft 456kts
16-Mar-17 18:12 34.630404 -117.218846 50 29135ft 456kts
16-Mar-17 18:13 34.704030 -117.094321 50 29134ft 456kts
16-Mar-17 18:14 34.777075 -116.970045 50 29105ft 455kts
16-Mar-17 18:15 34.849104 -116.845728 51 29054ft 435kts
16-Mar-17 18:16 34.918596 -116.726181 51 28969ft 439kts
16-Mar-17 18:17 34.987334 -116.604185 52 27078ft 432kts
16-Mar-17 18:18 35.054192 -116.484964 55 25281ft 423kts
16-Mar-17 18:19 35.119899 -116.378687 44 23662ft 410kts
16-Mar-17 18:20 35.191544 -116.288600 45 22264ft 400kts
16-Mar-17 18:21 35.267507 -116.193184 45 20781ft 389kts
16-Mar-17 18:22 35.341079 -116.100540 46 19352ft 379kts
16-Mar-17 18:23 35.413095 -116.009615 46 17927ft 368kts
16-Mar-17 18:24 35.483072 -115.921028 46 16553ft 359kts
16-Mar-17 18:25 35.551301 -115.834426 46 15215ft 349kts
16-Mar-17 18:26 35.618083 -115.749715 44 13907ft 340kts
16-Mar-17 18:27 35.682771 -115.669200 46 13150ft 315kts
16-Mar-17 18:28 35.743583 -115.592863 37 13033ft 312kts
16-Mar-17 18:29 35.826935 -115.571987 2 13037ft 312kts
16-Mar-17 18:30 35.912412 -115.567012 2 13023ft 312kts
16-Mar-17 18:31 35.983141 -115.521072 63 12540ft 311kts
16-Mar-17 18:32 36.014306 -115.424550 68 11349ft 302kts
16-Mar-17 18:33 36.026095 -115.330714 94 10628ft 282kts
16-Mar-17 18:34 36.019662 -115.235381 95 9432ft 279kts
16-Mar-17 18:35 36.013909 -115.142781 94 8582ft 265kts
16-Mar-17 18:36 36.008760 -115.053801 94 7044ft 259kts
16-Mar-17 18:37 36.008057 -114.972363 65 6023ft 236kts
16-Mar-17 18:38 36.065423 -114.954508 328 4558ft 228kts
16-Mar-17 18:39 36.074160 -115.016358 268 3852ft 167kts
16-Mar-17 18:40 36.073702 -115.069334 271 2980ft 141kts
16-Mar-17 18:41 36.073628 -115.116729 270 2270ft 143kts
16-Mar-17 18:42 36.073885 -115.148117 284 2116ft 21kts
16-Mar-17 18:43 36.076425 -115.151985 334 2126ft 17kts
16-Mar-17 18:44 36.077842 -115.148289 94 2109ft 23kts
16-Mar-17 18:45 36.077738 -115.142464 21 2091ft 10kts
16-Mar-17 18:46 36.083083 -115.141943 48 2077ft 22kts
16-Mar-17 18:47 36.083532 -115.138068 194 2064ft 5kts
16-Mar-17 18:48 36.082976 -115.138712 228 2068ft 0kts
16-Mar-17 18:49 36.082976 -115.138712 228 2068ft 0kts
16-Mar-17 18:50 36.082976 -115.138712 228 2068ft 0kts
16-Mar-17 18:51 36.082976 -115.138712 228 2068ft 0kts

Navigation Log

Ident Type
Flight plan parsing failed, navigation log unavailable